CheckWX is a tool to help pilots better visualize weather data.  It is not intended as a substitute for an official pre-flight weather briefing.

08:30:20 UTC

WBSB TAF
Brunei International Airport
Bandar Seri Begawan, Brunei Darussalam
TAF WBSB 190500Z 1906/2012 31008KT 8000 FEW015 PROB40 TEMPO 1916/1918 7000 -SHRA SCT014 BECMG 1916/1918 21002KT

Mar-19@
06:00 UTC

Mar-19 @ 06:00 UTC

Mar-19@
16:00 UTC

Mar-19 @ 16:00 UTC

TAF WBSB 190500Z 1906/2012 31008KT 8000 FEW015
Wind
  • 310° at 8 KTS
Cloud Levels
  • Few at 1,500' AGL

Mar-19@
16:00 UTC

Mar-19 @ 16:00 UTC

Mar-19@
18:00 UTC

Mar-19 @ 18:00 UTC

PROB40 TEMPO 1916/1918 7000 -SHRA SCT014

Temporary - 40% Likelihood

Temporary - 40% Likelihood during this time.

Conditions
Light Rain
Cloud Levels
  • Scattered at 1,400' AGL

Mar-19@
16:00 UTC

Mar-19 @ 16:00 UTC

Mar-20@
12:00 UTC

Mar-20 @ 12:00 UTC

BECMG 1916/1918 21002KT

Becoming

Becoming Conditions expected by Tue, Mar 19, 2019 @ 18:00 UTC

Wind
  • 210° at 2 KTS
Cloud Levels
  • Few at 1,500' AGL